Time;durP1;ratioP1;P1;durP2;ratioP2;P2;SDS_P1;SDS_P2;PMS_P1;PMS_P2;Temp;Humidity;BMP_temperature;BMP_pressure;BME280_temperature;BME280_humidity;BME280_pressure;Samples;Min_cycle;Max_cycle;Signal;HPM_P1;HPM_P2
2023/02/16 00:00:26;;;;;;;35.88;22.73;;;6.20;99.90;;;;;;5009865;28;20030;-80
2023/02/16 00:02:53;;;;;;;35.15;22.75;;;6.20;99.90;;;;;;4997909;28;20030;-81
2023/02/16 00:05:26;;;;;;;35.53;22.48;;;6.20;99.90;;;;;;4998996;28;20048;-80
2023/02/16 00:07:53;;;;;;;37.45;23.77;;;6.20;99.90;;;;;;4999902;28;20026;-80
2023/02/16 00:10:19;;;;;;;35.60;23.08;;;6.20;99.90;;;;;;4996488;28;20030;-81
2023/02/16 00:15:29;;;;;;;35.88;22.58;;;6.20;99.90;;;;;;4996018;28;20084;-81
2023/02/16 00:17:56;;;;;;;33.30;21.98;;;6.20;99.90;;;;;;5000274;28;20058;-81
2023/02/16 00:20:22;;;;;;;33.42;21.25;;;6.20;99.90;;;;;;5011889;28;20464;-81
2023/02/16 00:22:48;;;;;;;32.65;21.10;;;6.10;99.90;;;;;;4998991;28;20050;-81
2023/02/16 00:25:13;;;;;;;32.10;21.27;;;6.00;99.90;;;;;;5016152;28;20053;-77
2023/02/16 00:27:39;;;;;;;31.60;19.95;;;6.00;99.90;;;;;;5003458;28;20034;-81
2023/02/16 00:30:16;;;;;;;31.75;20.60;;;6.00;99.90;;;;;;5005300;28;20403;-82
2023/02/16 00:32:42;;;;;;;31.77;20.00;;;6.00;99.90;;;;;;5014730;28;20045;-80
2023/02/16 00:35:19;;;;;;;32.63;20.55;;;5.90;99.90;;;;;;5000062;28;20025;-82
2023/02/16 00:37:46;;;;;;;30.92;19.23;;;5.90;99.90;;;;;;5000414;28;20022;-81
2023/02/16 00:40:13;;;;;;;29.50;19.13;;;5.80;99.90;;;;;;4999860;28;20046;-82
2023/02/16 00:42:39;;;;;;;28.92;19.60;;;5.80;99.90;;;;;;5000249;28;20053;-80
2023/02/16 00:45:18;;;;;;;29.80;19.17;;;5.70;99.90;;;;;;5001270;28;20050;-81
2023/02/16 00:47:46;;;;;;;29.15;18.85;;;5.70;99.90;;;;;;4999460;28;20045;-80
2023/02/16 00:50:28;;;;;;;29.27;19.95;;;5.60;99.90;;;;;;5002681;28;20963;-80
2023/02/16 00:52:55;;;;;;;30.83;19.17;;;5.50;99.90;;;;;;5007717;28;20506;-80
2023/02/16 00:55:23;;;;;;;33.05;21.60;;;5.40;99.90;;;;;;5005988;28;20101;-81
2023/02/16 00:57:50;;;;;;;29.85;19.60;;;5.40;99.90;;;;;;5005510;28;20041;-79
2023/02/16 01:00:23;;;;;;;32.53;20.98;;;5.40;99.90;;;;;;5007698;28;20026;-78
2023/02/16 01:02:50;;;;;;;35.70;21.13;;;5.40;99.90;;;;;;5002746;28;20033;-80
2023/02/16 01:05:17;;;;;;;31.50;19.88;;;5.40;99.90;;;;;;5003650;28;20022;-81
2023/02/16 01:13:13;;;;;;;30.40;20.52;;;5.50;99.90;;;;;;5001014;28;20045;-82
2023/02/16 01:15:39;;;;;;;31.30;19.55;;;5.40;99.90;;;;;;5003229;28;20058;-81
2023/02/16 01:18:06;;;;;;;28.45;18.83;;;5.40;99.90;;;;;;5020859;28;20045;-79
2023/02/16 01:20:35;;;;;;;28.00;18.75;;;5.40;99.90;;;;;;5017230;28;20013;-81
2023/02/16 01:23:00;;;;;;;31.35;20.20;;;5.40;99.90;;;;;;5018256;28;20097;-81
2023/02/16 01:25:26;;;;;;;32.53;20.55;;;5.40;99.90;;;;;;5009231;28;20141;-82
2023/02/16 01:27:52;;;;;;;29.65;19.13;;;5.30;99.90;;;;;;5009895;28;20062;-79
2023/02/16 01:30:22;;;;;;;31.60;20.30;;;5.20;99.90;;;;;;5007444;28;20495;-83
2023/02/16 01:32:52;;;;;;;36.90;21.70;;;5.10;99.90;;;;;;5004704;28;20022;-80
2023/02/16 01:35:30;;;;;;;33.55;22.05;;;5.10;99.90;;;;;;5008852;28;20023;-82
2023/02/16 01:37:56;;;;;;;36.03;21.48;;;5.00;99.90;;;;;;5004693;28;20042;-82
2023/02/16 01:40:35;;;;;;;35.78;22.55;;;4.80;99.90;;;;;;5001917;28;20038;-81
2023/02/16 01:43:23;;;;;;;34.58;21.20;;;4.70;99.90;;;;;;5005975;28;20061;-79
2023/02/16 01:45:56;;;;;;;35.33;21.15;;;4.60;99.90;;;;;;5020552;28;20088;-80
2023/02/16 01:48:27;;;;;;;33.85;21.52;;;4.60;99.90;;;;;;4999592;28;20041;-81
2023/02/16 01:51:17;;;;;;;31.40;20.23;;;4.60;99.90;;;;;;4998562;28;20035;-82
2023/02/16 01:53:47;;;;;;;34.03;20.27;;;4.50;99.90;;;;;;5000040;28;20132;-80
2023/02/16 01:56:48;;;;;;;32.28;20.75;;;4.50;99.90;;;;;;5004295;28;20117;-81
2023/02/16 01:59:43;;;;;;;32.72;20.70;;;4.50;99.90;;;;;;4998777;28;20392;-81
2023/02/16 02:02:16;;;;;;;32.35;20.17;;;4.40;99.90;;;;;;5013446;28;20052;-82
2023/02/16 02:07:51;;;;;;;32.55;19.95;;;4.40;99.90;;;;;;4999934;28;20104;-80
2023/02/16 02:10:57;;;;;;;31.35;20.98;;;4.30;99.90;;;;;;4998178;28;20023;-80
2023/02/16 02:13:57;;;;;;;30.42;19.38;;;4.30;99.90;;;;;;4999496;28;20057;-81
2023/02/16 02:16:24;;;;;;;32.58;19.85;;;4.30;99.90;;;;;;4999379;28;20038;-80
2023/02/16 02:18:51;;;;;;;31.63;19.45;;;4.20;99.90;;;;;;5002226;28;20022;-81
2023/02/16 02:24:52;;;;;;;29.27;18.65;;;4.30;99.90;;;;;;5000179;28;20590;-81
2023/02/16 02:27:23;;;;;;;30.83;19.73;;;4.30;99.90;;;;;;5016623;28;20507;-80
2023/02/16 02:30:07;;;;;;;31.92;20.08;;;4.20;99.90;;;;;;4996425;28;20026;-81
2023/02/16 02:33:01;;;;;;;30.20;18.63;;;4.20;99.90;;;;;;4996264;28;20923;-82
2023/02/16 02:35:53;;;;;;;28.63;18.83;;;4.20;99.90;;;;;;4997937;28;20033;-80
2023/02/16 02:38:54;;;;;;;30.45;19.08;;;4.20;99.90;;;;;;4996041;28;20186;-80
2023/02/16 02:44:21;;;;;;;30.60;18.25;;;4.30;99.90;;;;;;4997549;28;20416;-81
2023/02/16 02:46:47;;;;;;;28.25;18.13;;;4.30;99.90;;;;;;4998705;28;20025;-80
2023/02/16 02:49:13;;;;;;;30.20;19.02;;;4.30;99.90;;;;;;4995765;28;20096;-80
2023/02/16 02:51:39;;;;;;;27.48;18.05;;;4.30;99.90;;;;;;4996807;28;20475;-82
2023/02/16 03:00:42;;;;;;;27.02;16.83;;;4.50;99.90;;;;;;4998995;28;20117;-83
2023/02/16 03:03:26;;;;;;;26.98;17.27;;;4.60;99.90;;;;;;5003306;28;20036;-82
2023/02/16 03:06:02;;;;;;;25.17;15.77;;;4.70;99.90;;;;;;4997809;28;20026;-81
2023/02/16 03:08:31;;;;;;;25.25;15.45;;;4.70;99.90;;;;;;5000097;28;20145;-80
2023/02/16 03:14:14;;;;;;;27.17;17.38;;;4.80;99.90;;;;;;4998563;28;20045;-80
2023/02/16 03:30:45;;;;;;;31.52;18.55;;;4.80;99.90;;;;;;4996486;28;20052;-81
2023/02/16 03:33:10;;;;;;;27.30;18.15;;;4.80;99.90;;;;;;4997328;28;20184;-80
2023/02/16 03:35:37;;;;;;;28.42;17.73;;;4.80;99.90;;;;;;5012353;28;20749;-81
2023/02/16 03:38:02;;;;;;;29.00;17.20;;;4.80;99.90;;;;;;4997214;28;20037;-81
2023/02/16 03:40:32;;;;;;;30.90;18.73;;;4.70;99.90;;;;;;4997061;28;20026;-81
2023/02/16 03:43:00;;;;;;;29.00;19.00;;;4.70;99.90;;;;;;5011357;28;20384;-82
2023/02/16 03:45:27;;;;;;;27.63;17.77;;;4.60;99.90;;;;;;4998917;28;20057;-82
2023/02/16 03:47:53;;;;;;;29.67;18.38;;;4.70;99.90;;;;;;4997600;28;20502;-81
2023/02/16 03:50:20;;;;;;;27.13;17.30;;;4.50;99.90;;;;;;4996181;28;20034;-82
2023/02/16 03:52:45;;;;;;;29.30;17.40;;;4.50;99.90;;;;;;4996204;28;20141;-80
2023/02/16 03:55:11;;;;;;;25.88;16.60;;;4.50;99.90;;;;;;5000708;28;20118;-82
2023/02/16 03:57:37;;;;;;;26.90;17.27;;;4.50;99.90;;;;;;4995862;28;20038;-82
2023/02/16 04:00:03;;;;;;;27.70;16.83;;;4.40;99.90;;;;;;4996588;28;20031;-83
2023/02/16 04:02:28;;;;;;;25.23;16.00;;;4.40;99.90;;;;;;5000853;28;20026;-82
2023/02/16 04:04:54;;;;;;;26.65;16.60;;;4.40;99.90;;;;;;5001580;28;20539;-80
2023/02/16 04:07:19;;;;;;;29.30;19.02;;;4.40;99.90;;;;;;5011326;28;20388;-81
2023/02/16 04:09:45;;;;;;;27.50;17.60;;;4.40;99.90;;;;;;4997106;28;20117;-80
2023/02/16 04:14:56;;;;;;;30.88;17.92;;;4.40;99.90;;;;;;4995384;28;20100;-81
2023/02/16 04:17:22;;;;;;;29.40;18.42;;;4.40;99.90;;;;;;4996301;28;20056;-81
2023/02/16 04:19:48;;;;;;;25.70;18.02;;;4.50;99.90;;;;;;5011824;28;20395;-81
2023/02/16 04:22:13;;;;;;;27.65;17.17;;;4.50;99.90;;;;;;4996752;28;20034;-81
2023/02/16 04:24:39;;;;;;;25.55;16.85;;;4.60;99.90;;;;;;4994943;28;20090;-81
2023/02/16 04:27:05;;;;;;;27.23;18.23;;;4.60;99.90;;;;;;4996838;28;20132;-82
2023/02/16 04:29:30;;;;;;;25.17;16.25;;;4.70;99.90;;;;;;4998905;28;20033;-82
2023/02/16 04:31:56;;;;;;;27.50;17.50;;;4.80;99.90;;;;;;5000590;28;20042;-81
2023/02/16 04:34:23;;;;;;;27.63;18.05;;;4.80;99.90;;;;;;4995888;28;20018;-80
2023/02/16 04:36:49;;;;;;;28.88;17.98;;;4.90;99.90;;;;;;4998254;28;20037;-81
2023/02/16 04:39:15;;;;;;;28.98;18.30;;;4.90;99.90;;;;;;4995137;28;20022;-80
2023/02/16 04:41:40;;;;;;;29.23;18.45;;;5.00;99.90;;;;;;4995145;28;20037;-80
2023/02/16 04:44:06;;;;;;;28.52;17.95;;;5.00;99.90;;;;;;4995332;28;20136;-83
2023/02/16 04:46:31;;;;;;;28.30;17.77;;;5.10;99.90;;;;;;4996421;28;20104;-82
2023/02/16 04:48:57;;;;;;;28.08;18.13;;;5.00;99.90;;;;;;5011361;28;20484;-79
2023/02/16 04:51:23;;;;;;;28.48;18.33;;;5.10;99.90;;;;;;5011366;28;20073;-80
2023/02/16 04:53:48;;;;;;;28.25;18.10;;;5.10;99.90;;;;;;5010815;28;20114;-82
2023/02/16 04:56:14;;;;;;;27.67;17.60;;;5.20;99.90;;;;;;4994988;28;20472;-81
2023/02/16 04:58:40;;;;;;;27.58;18.00;;;5.20;99.90;;;;;;4995375;28;20445;-81
2023/02/16 05:01:06;;;;;;;27.58;17.73;;;5.20;99.90;;;;;;4995895;28;20868;-80
2023/02/16 05:03:32;;;;;;;31.13;19.55;;;5.30;99.90;;;;;;4995919;28;20026;-79
2023/02/16 05:05:57;;;;;;;29.95;19.08;;;5.30;99.90;;;;;;4995027;28;20404;-81
2023/02/16 05:08:23;;;;;;;29.02;18.42;;;5.30;99.90;;;;;;4999046;28;20040;-82
2023/02/16 05:14:40;;;;;;;30.33;19.02;;;5.30;99.90;;;;;;5001051;28;20053;-83
2023/02/16 05:16:20;;;;;;;27.00;17.20;;;5.30;99.90;;;;;;5002502;28;20139;-81
2023/02/16 05:18:46;;;;;;;29.42;18.70;;;5.40;99.90;;;;;;5001301;28;20031;-83
2023/02/16 05:21:30;;;;;;;27.08;18.35;;;5.30;99.90;;;;;;5000647;28;20032;-79
2023/02/16 05:23:56;;;;;;;;;;;5.40;99.90;;;;;;5000740;28;20201;-81
2023/02/16 05:26:21;;;;;;;24.95;15.85;;;5.40;99.90;;;;;;4999127;28;20079;-81
2023/02/16 05:28:47;;;;;;;25.13;16.63;;;5.40;99.90;;;;;;4998971;28;20037;-82
2023/02/16 05:31:12;;;;;;;27.13;16.45;;;5.40;99.90;;;;;;4999789;28;20034;-82
2023/02/16 05:33:38;;;;;;;30.23;17.33;;;5.40;99.90;;;;;;4999414;28;20041;-80
2023/02/16 05:36:03;;;;;;;29.88;18.80;;;5.40;99.90;;;;;;4998771;28;20433;-81
2023/02/16 05:38:29;;;;;;;33.28;19.73;;;5.40;99.90;;;;;;5012647;28;20120;-82
2023/02/16 05:40:55;;;;;;;26.90;18.35;;;5.40;99.90;;;;;;4999517;28;20033;-81
2023/02/16 05:43:20;;;;;;;29.90;19.95;;;5.50;99.90;;;;;;5003485;28;20508;-82
2023/02/16 05:45:46;;;;;;;34.28;20.85;;;5.50;99.90;;;;;;5012656;28;20030;-83
2023/02/16 05:48:11;;;;;;;32.25;21.00;;;5.50;99.90;;;;;;5020271;28;20036;-81
2023/02/16 05:50:37;;;;;;;33.17;21.63;;;5.50;99.90;;;;;;5025215;28;20050;-80
2023/02/16 05:53:02;;;;;;;36.53;22.58;;;5.50;99.90;;;;;;5015912;28;20037;-82
2023/02/16 05:55:28;;;;;;;39.88;24.40;;;5.50;99.90;;;;;;5003980;28;20030;-81
2023/02/16 05:57:53;;;;;;;42.25;26.75;;;5.50;99.90;;;;;;5002070;28;20035;-83
2023/02/16 06:00:19;;;;;;;47.10;30.25;;;5.50;99.90;;;;;;5006662;28;20146;-82
2023/02/16 06:02:45;;;;;;;47.65;30.13;;;5.50;99.90;;;;;;5002222;28;20037;-81
2023/02/16 06:05:10;;;;;;;41.75;26.42;;;5.50;99.90;;;;;;4999724;28;20064;-81
2023/02/16 06:07:36;;;;;;;40.95;26.50;;;5.50;99.90;;;;;;5000664;28;20119;-81
2023/02/16 06:10:02;;;;;;;35.78;22.73;;;5.50;99.90;;;;;;4999622;28;20053;-82
2023/02/16 06:12:30;;;;;;;42.95;26.75;;;5.60;99.90;;;;;;5001387;28;20037;-82
2023/02/16 06:14:56;;;;;;;39.03;24.55;;;5.60;99.90;;;;;;5000374;28;20364;-83
2023/02/16 06:17:21;;;;;;;43.80;27.35;;;5.60;99.90;;;;;;4997945;28;20029;-81
2023/02/16 06:19:47;;;;;;;42.72;26.80;;;5.60;99.90;;;;;;5001562;28;20029;-83
2023/02/16 06:22:15;;;;;;;39.70;24.95;;;5.60;99.90;;;;;;4999703;28;20141;-82
2023/02/16 06:24:44;;;;;;;40.42;25.35;;;5.60;99.90;;;;;;4999334;28;20077;-81
2023/02/16 06:27:10;;;;;;;34.88;22.40;;;5.60;99.90;;;;;;4997268;28;20217;-82
2023/02/16 06:29:35;;;;;;;38.50;23.63;;;5.70;99.90;;;;;;5002897;28;20472;-84
2023/02/16 06:32:03;;;;;;;37.95;23.55;;;5.60;99.90;;;;;;4997783;28;20443;-82
2023/02/16 06:34:29;;;;;;;40.95;25.27;;;5.70;99.90;;;;;;4995969;28;20033;-83
2023/02/16 06:36:58;;;;;;;38.33;24.83;;;5.70;99.90;;;;;;5001043;28;20038;-81
2023/02/16 06:39:23;;;;;;;36.55;24.08;;;5.70;99.90;;;;;;4997944;28;20689;-83
2023/02/16 06:41:49;;;;;;;35.50;23.02;;;5.70;99.90;;;;;;4997971;28;20149;-83
2023/02/16 06:44:15;;;;;;;36.60;24.08;;;5.70;99.90;;;;;;5001598;28;20066;-82
2023/02/16 06:46:46;;;;;;;38.42;24.60;;;5.70;99.90;;;;;;4996350;28;20369;-82
2023/02/16 06:49:17;;;;;;;37.65;25.05;;;5.70;99.90;;;;;;5012383;28;20113;-82
2023/02/16 06:51:43;;;;;;;40.80;26.58;;;5.80;99.90;;;;;;5013228;28;20046;-82
2023/02/16 06:54:09;;;;;;;44.38;28.42;;;5.70;99.90;;;;;;4997026;28;20424;-81
2023/02/16 06:56:34;;;;;;;50.83;30.90;;;5.80;99.90;;;;;;5011730;28;20044;-82
2023/02/16 06:59:01;;;;;;;43.83;27.15;;;5.80;99.90;;;;;;4996115;28;20057;-81
2023/02/16 07:01:26;;;;;;;40.70;26.75;;;5.80;99.90;;;;;;4996119;28;20069;-82
2023/02/16 07:03:56;;;;;;;38.95;25.70;;;5.80;99.90;;;;;;4995981;28;20584;-80
2023/02/16 07:06:24;;;;;;;41.83;26.85;;;5.80;99.90;;;;;;5001284;28;20129;-81
2023/02/16 07:08:51;;;;;;;39.83;25.90;;;5.90;99.90;;;;;;4996731;28;20583;-80
2023/02/16 07:11:18;;;;;;;38.88;26.00;;;5.90;99.90;;;;;;4996692;28;20030;-79
2023/02/16 07:13:44;;;;;;;39.95;25.77;;;6.00;99.90;;;;;;4998104;28;20036;-80
2023/02/16 07:16:10;;;;;;;43.58;28.75;;;6.00;99.90;;;;;;4993301;28;20364;-81
2023/02/16 07:18:35;;;;;;;45.80;29.65;;;6.00;99.90;;;;;;4995786;28;20022;-80
2023/02/16 07:21:01;;;;;;;43.17;28.08;;;6.00;99.90;;;;;;4994785;28;20445;-81
2023/02/16 07:23:27;;;;;;;42.15;26.88;;;6.00;99.90;;;;;;4997366;28;20482;-79
2023/02/16 07:25:52;;;;;;;37.65;23.52;;;6.00;99.90;;;;;;4996438;28;20089;-81
2023/02/16 07:28:18;;;;;;;40.72;26.13;;;6.00;99.90;;;;;;4996160;28;20029;-82
2023/02/16 07:30:44;;;;;;;39.70;25.77;;;6.00;99.90;;;;;;4997238;28;20083;-83
2023/02/16 07:33:10;;;;;;;40.00;25.63;;;6.00;99.90;;;;;;4996179;28;20045;-81
2023/02/16 07:35:36;;;;;;;35.47;23.83;;;6.00;99.90;;;;;;4996715;28;20029;-82
2023/02/16 07:38:03;;;;;;;38.33;25.25;;;6.00;99.90;;;;;;4995028;28;20034;-80
2023/02/16 07:40:30;;;;;;;34.75;22.75;;;6.10;99.90;;;;;;5000535;28;20137;-81
2023/02/16 07:43:02;;;;;;;35.45;24.13;;;6.10;99.90;;;;;;4997347;28;20038;-83
2023/02/16 07:45:28;;;;;;;42.97;26.95;;;6.20;99.90;;;;;;5000500;28;20049;-82
2023/02/16 07:47:54;;;;;;;43.22;26.55;;;6.20;99.90;;;;;;4994905;28;20030;-81
2023/02/16 07:50:20;;;;;;;43.67;27.52;;;6.20;99.90;;;;;;4995426;28;20529;-80
2023/02/16 07:52:45;;;;;;;41.80;28.10;;;6.20;99.90;;;;;;5011769;28;20049;-81
2023/02/16 07:55:11;;;;;;;38.20;25.48;;;6.30;99.90;;;;;;4997525;28;20027;-78
2023/02/16 07:57:38;;;;;;;44.03;25.63;;;6.40;99.90;;;;;;5001020;28;20036;-80
2023/02/16 08:00:06;;;;;;;39.22;26.05;;;6.40;99.90;;;;;;4995009;28;20117;-81
2023/02/16 08:02:32;;;;;;;46.50;28.75;;;6.50;99.90;;;;;;5000355;28;20591;-79
2023/02/16 08:04:58;;;;;;;40.22;25.80;;;6.50;99.90;;;;;;5000632;28;20030;-80
2023/02/16 08:07:24;;;;;;;40.35;27.17;;;6.60;99.90;;;;;;4997370;28;20365;-81
2023/02/16 08:09:50;;;;;;;42.53;26.02;;;6.70;99.90;;;;;;5000041;28;20030;-81
2023/02/16 08:12:16;;;;;;;46.70;28.35;;;6.70;99.90;;;;;;5000210;28;20061;-80
2023/02/16 08:14:43;;;;;;;46.20;30.83;;;6.80;99.90;;;;;;4997239;28;20946;-80
2023/02/16 08:17:08;;;;;;;43.75;28.88;;;6.80;99.90;;;;;;5009719;28;20030;-81
2023/02/16 08:19:35;;;;;;;44.08;28.50;;;6.90;99.90;;;;;;4994097;28;20057;-81
2023/02/16 08:22:03;;;;;;;43.63;29.13;;;6.90;99.90;;;;;;4994813;28;20022;-82
2023/02/16 08:24:29;;;;;;;43.22;28.08;;;6.90;99.90;;;;;;5000162;28;20105;-82
2023/02/16 08:26:55;;;;;;;44.45;29.52;;;6.90;99.90;;;;;;4999696;28;20440;-81
2023/02/16 08:29:22;;;;;;;40.72;27.33;;;6.90;99.90;;;;;;4993914;28;20037;-80
2023/02/16 08:31:48;;;;;;;45.70;30.75;;;6.90;99.90;;;;;;4994001;28;20463;-82
2023/02/16 08:34:16;;;;;;;45.67;30.58;;;6.90;99.90;;;;;;4995800;28;20018;-81
2023/02/16 08:36:43;;;;;;;50.38;32.38;;;6.90;99.90;;;;;;4994566;28;20087;-80
2023/02/16 08:39:15;;;;;;;44.75;29.52;;;6.90;99.90;;;;;;5010139;28;20362;-81
2023/02/16 08:41:42;;;;;;;42.42;28.15;;;6.90;99.90;;;;;;4997319;28;20498;-82
2023/02/16 08:44:09;;;;;;;48.17;31.23;;;7.00;99.90;;;;;;4999682;28;20104;-83
2023/02/16 08:46:38;;;;;;;40.05;28.10;;;7.00;99.90;;;;;;5004112;28;20644;-82
2023/02/16 08:49:04;;;;;;;40.30;26.52;;;7.00;99.90;;;;;;5013917;28;20030;-83
2023/02/16 08:51:33;;;;;;;35.40;24.33;;;7.00;99.90;;;;;;5014510;28;20049;-81
2023/02/16 08:54:00;;;;;;;36.67;23.73;;;7.00;99.90;;;;;;4998512;28;20028;-81
2023/02/16 08:56:28;;;;;;;40.35;26.80;;;7.10;99.90;;;;;;5015489;28;20037;-82
2023/02/16 08:58:54;;;;;;;34.92;25.00;;;7.10;99.90;;;;;;4997524;28;20030;-81
2023/02/16 09:01:20;;;;;;;38.03;26.15;;;7.10;99.90;;;;;;4997836;28;20124;-81
2023/02/16 09:03:47;;;;;;;35.20;23.73;;;7.10;99.90;;;;;;4997906;28;20128;-81
2023/02/16 09:06:14;;;;;;;38.08;23.35;;;7.10;99.90;;;;;;5014441;28;20441;-80
2023/02/16 09:08:45;;;;;;;34.17;22.35;;;7.20;99.90;;;;;;4998530;28;20196;-82
2023/02/16 09:11:13;;;;;;;37.42;25.40;;;7.20;99.90;;;;;;4997458;28;20031;-80
2023/02/16 09:13:42;;;;;;;34.50;23.95;;;7.20;99.90;;;;;;5014857;28;20435;-82
2023/02/16 09:16:10;;;;;;;41.22;26.85;;;7.20;99.90;;;;;;4999581;28;20071;-80
2023/02/16 09:18:37;;;;;;;36.65;25.05;;;7.20;99.90;;;;;;4998850;28;20026;-80
2023/02/16 09:21:05;;;;;;;42.28;27.08;;;7.30;99.90;;;;;;4993950;28;20026;-82
2023/02/16 09:23:35;;;;;;;37.50;25.15;;;7.30;99.90;;;;;;4996922;28;20050;-80
2023/02/16 09:26:01;;;;;;;38.17;24.45;;;7.30;99.90;;;;;;4996845;28;20060;-83
2023/02/16 09:28:38;;;;;;;32.42;22.75;;;7.40;99.90;;;;;;4996783;28;20057;-84
2023/02/16 09:31:24;;;;;;;37.45;24.42;;;7.40;99.90;;;;;;4995706;28;20477;-83
2023/02/16 09:33:51;;;;;;;40.58;27.15;;;7.40;99.90;;;;;;4998951;28;20084;-82
2023/02/16 09:36:17;;;;;;;35.67;25.80;;;7.40;99.90;;;;;;4998188;28;20037;-81
2023/02/16 09:38:43;;;;;;;36.22;24.05;;;7.40;99.90;;;;;;5001243;28;20069;-81
2023/02/16 09:41:36;;;;;;;35.55;23.10;;;7.40;99.90;;;;;;5001337;28;20308;-81
2023/02/16 09:44:11;;;;;;;38.58;25.55;;;7.50;99.90;;;;;;5015637;28;20072;-84
2023/02/16 09:46:39;;;;;;;37.03;25.00;;;7.40;99.90;;;;;;5023935;28;20021;-80
2023/02/16 09:49:07;;;;;;;39.08;25.33;;;7.50;99.90;;;;;;5017320;28;20029;-82
2023/02/16 09:51:40;;;;;;;38.75;26.70;;;7.40;99.90;;;;;;5003008;28;20464;-82
2023/02/16 09:54:30;;;;;;;37.17;23.95;;;7.40;99.90;;;;;;4998222;28;20026;-81
2023/02/16 09:57:07;;;;;;;36.20;24.10;;;7.40;99.90;;;;;;4998144;28;20060;-82
2023/02/16 09:59:52;;;;;;;32.05;21.67;;;7.50;99.90;;;;;;5000550;28;20026;-81
2023/02/16 10:02:29;;;;;;;34.13;22.85;;;7.50;99.90;;;;;;5010651;28;20496;-82
2023/02/16 10:05:16;;;;;;;33.90;22.77;;;7.60;99.90;;;;;;4994211;28;20029;-81
2023/02/16 10:08:06;;;;;;;33.45;22.92;;;7.60;99.90;;;;;;5010293;28;20997;-81
2023/02/16 10:10:34;;;;;;;41.45;27.33;;;7.60;99.90;;;;;;5008746;28;20053;-80
2023/02/16 10:13:14;;;;;;;38.20;26.95;;;7.60;99.90;;;;;;5010810;28;20046;-82
2023/02/16 10:15:44;;;;;;;36.95;25.00;;;7.50;99.90;;;;;;4997034;28;20030;-81
2023/02/16 10:18:36;;;;;;;35.88;25.25;;;7.60;99.90;;;;;;4993789;28;20426;-81
2023/02/16 10:21:12;;;;;;;36.75;24.48;;;7.50;99.90;;;;;;5010451;28;20030;-84
2023/02/16 10:23:48;;;;;;;38.25;25.25;;;7.60;99.90;;;;;;4994627;28;20068;-83
2023/02/16 10:26:35;;;;;;;40.58;26.80;;;7.60;99.90;;;;;;4996695;28;20388;-80
2023/02/16 10:29:14;;;;;;;35.22;23.70;;;7.60;99.90;;;;;;5000186;28;20053;-82
2023/02/16 10:32:21;;;;;;;35.97;23.33;;;7.70;99.90;;;;;;5000772;28;20038;-82
2023/02/16 10:35:09;;;;;;;31.50;22.38;;;7.60;99.90;;;;;;5001236;28;20022;-85
2023/02/16 10:37:36;;;;;;;39.17;27.48;;;7.60;99.90;;;;;;5012868;28;20030;-85
2023/02/16 10:40:11;;;;;;;44.75;29.25;;;7.50;99.90;;;;;;5011816;28;20031;-85
2023/02/16 10:43:04;;;;;;;42.40;28.13;;;7.50;99.90;;;;;;5012519;28;20026;-85
2023/02/16 10:45:48;;;;;;;55.38;35.65;;;7.50;99.90;;;;;;4998685;28;20041;-85
2023/02/16 10:48:13;;;;;;;53.00;33.95;;;7.50;99.90;;;;;;5000179;28;20503;-85
2023/02/16 10:50:50;;;;;;;49.42;33.80;;;7.40;99.90;;;;;;4999658;28;20080;-85
2023/02/16 10:53:22;;;;;;;52.65;35.67;;;7.50;99.90;;;;;;4998897;28;20561;-85
2023/02/16 10:55:48;;;;;;;50.90;33.83;;;7.40;99.90;;;;;;5016026;28;20030;-83
2023/02/16 10:58:25;;;;;;;50.33;32.75;;;7.40;99.90;;;;;;4999593;28;20611;-85
2023/02/16 11:01:20;;;;;;;53.03;35.42;;;7.30;99.90;;;;;;5001081;28;20032;-84
2023/02/16 11:03:49;;;;;;;45.85;30.65;;;7.40;99.90;;;;;;5001419;28;20385;-86
2023/02/16 11:06:19;;;;;;;41.60;28.65;;;7.30;99.90;;;;;;5003747;28;20111;-82
2023/02/16 11:08:59;;;;;;;39.95;26.63;;;7.30;99.90;;;;;;5016315;28;20026;-84
2023/02/16 11:11:45;;;;;;;37.75;27.13;;;7.30;99.90;;;;;;5001918;28;20137;-85
2023/02/16 11:14:22;;;;;;;40.80;27.60;;;7.30;99.90;;;;;;4999119;28;20042;-85
2023/02/16 11:17:11;;;;;;;38.42;26.02;;;7.30;99.90;;;;;;5001931;28;20034;-84
2023/02/16 11:19:38;;;;;;;38.67;26.80;;;7.30;99.90;;;;;;5003633;28;20042;-86
2023/02/16 11:22:05;;;;;;;39.65;25.35;;;7.30;99.90;;;;;;4998980;28;20108;-84
2023/02/16 11:24:33;;;;;;;42.30;26.60;;;7.30;99.90;;;;;;5001904;28;20472;-83
2023/02/16 11:27:18;;;;;;;43.65;28.17;;;7.40;99.90;;;;;;4998845;28;20045;-85
2023/02/16 11:29:44;;;;;;;34.47;24.27;;;7.40;99.90;;;;;;5003339;28;20030;-86
2023/02/16 11:32:15;;;;;;;35.00;23.50;;;7.30;99.90;;;;;;4999446;28;20040;-85
2023/02/16 11:34:59;;;;;;;34.53;23.65;;;7.40;99.90;;;;;;5014175;28;20109;-86
2023/02/16 11:37:32;;;;;;;36.70;25.55;;;7.40;99.90;;;;;;5000251;28;20026;-86
2023/02/16 11:40:03;;;;;;;37.08;24.15;;;7.40;99.90;;;;;;5002100;28;20026;-85
2023/02/16 11:42:32;;;;;;;34.20;23.38;;;7.40;99.90;;;;;;5001180;28;20027;-85
2023/02/16 11:44:59;;;;;;;34.28;24.25;;;7.40;99.90;;;;;;5001060;28;20046;-84
2023/02/16 11:47:29;;;;;;;40.47;26.67;;;7.40;99.90;;;;;;4996468;28;20050;-84
2023/02/16 11:50:19;;;;;;;46.20;31.83;;;7.40;99.90;;;;;;4996650;28;20217;-83
2023/02/16 11:52:49;;;;;;;48.58;32.42;;;7.40;99.90;;;;;;4995388;28;20039;-85
2023/02/16 11:55:32;;;;;;;45.65;32.05;;;7.50;99.90;;;;;;4997313;28;20030;-84
2023/02/16 11:58:14;;;;;;;44.72;30.77;;;7.50;99.90;;;;;;5014049;28;20957;-85
2023/02/16 12:00:50;;;;;;;42.97;30.15;;;7.50;99.90;;;;;;5002276;28;20030;-86
2023/02/16 12:03:22;;;;;;;45.00;31.17;;;7.60;99.90;;;;;;5010794;28;20104;-86
2023/02/16 12:06:11;;;;;;;47.50;31.77;;;7.70;99.90;;;;;;5010449;28;20041;-85
2023/02/16 12:08:45;;;;;;;47.08;31.48;;;7.70;99.90;;;;;;4992499;28;20084;-84
2023/02/16 12:11:49;;;;;;;44.67;30.20;;;7.80;99.90;;;;;;5009837;28;20042;-85
2023/02/16 12:14:21;;;;;;;45.42;32.35;;;7.90;99.90;;;;;;4994682;28;20757;-85
2023/02/16 12:16:56;;;;;;;43.78;30.42;;;7.90;99.90;;;;;;4997345;28;20030;-85
2023/02/16 12:19:55;;;;;;;45.63;30.67;;;8.00;99.90;;;;;;4996385;28;20116;-84
2023/02/16 12:22:40;;;;;;;52.35;35.15;;;8.10;99.90;;;;;;4994437;28;20144;-83
2023/02/16 12:25:28;;;;;;;45.42;32.10;;;8.30;99.90;;;;;;4996879;28;20030;-85
2023/02/16 12:28:19;;;;;;;50.05;33.25;;;8.40;99.90;;;;;;5015295;28;20084;-85
2023/02/16 12:30:54;;;;;;;52.50;36.00;;;8.40;99.90;;;;;;4998178;28;20030;-85
2023/02/16 12:33:28;;;;;;;51.20;35.70;;;8.50;99.90;;;;;;5013297;28;20305;-84
2023/02/16 12:35:57;;;;;;;56.25;38.45;;;8.60;99.90;;;;;;4998812;28;20093;-84
2023/02/16 12:38:58;;;;;;;59.53;38.35;;;8.70;99.90;;;;;;5014697;28;20034;-84
2023/02/16 12:41:42;;;;;;;53.97;37.90;;;8.80;99.90;;;;;;5010625;28;20601;-83
2023/02/16 12:44:33;;;;;;;56.42;37.83;;;8.90;99.90;;;;;;5012028;28;20056;-86
2023/02/16 12:47:07;;;;;;;59.28;41.05;;;9.00;99.90;;;;;;5011137;28;20029;-85
2023/02/16 12:49:52;;;;;;;54.63;38.03;;;9.30;99.90;;;;;;4995864;28;20650;-84
2023/02/16 12:52:49;;;;;;;51.58;36.28;;;9.60;99.90;;;;;;4998861;28;20488;-84
2023/02/16 12:55:33;;;;;;;56.55;39.17;;;9.90;99.90;;;;;;4998009;28;20073;-86
2023/02/16 12:58:14;;;;;;;56.65;37.72;;;10.50;99.90;;;;;;4998355;28;20022;-82
2023/02/16 13:00:48;;;;;;;48.53;34.03;;;10.90;99.90;;;;;;5016104;28;20034;-87
2023/02/16 13:03:39;;;;;;;47.03;33.28;;;11.10;99.90;;;;;;5018302;28;20049;-84
2023/02/16 13:06:29;;;;;;;39.00;26.98;;;11.60;99.90;;;;;;5002322;28;20033;-87
2023/02/16 13:09:15;;;;;;;41.22;31.17;;;11.70;99.90;;;;;;4996218;28;20096;-85
2023/02/16 13:11:48;;;;;;;43.85;33.00;;;11.60;99.90;;;;;;5014371;28;20514;-81
2023/02/16 13:14:20;;;;;;;43.53;31.52;;;11.50;99.90;;;;;;4999199;28;20030;-85
2023/02/16 13:16:53;;;;;;;45.20;34.00;;;11.40;99.90;;;;;;4998679;28;20076;-85
2023/02/16 13:19:22;;;;;;;44.55;32.00;;;11.40;99.90;;;;;;4996838;28;20077;-86
2023/02/16 13:22:15;;;;;;;41.00;31.17;;;11.50;99.90;;;;;;5000030;28;20026;-84
2023/02/16 13:25:03;;;;;;;40.72;30.83;;;11.80;99.90;;;;;;4996054;28;20034;-86
2023/02/16 13:27:44;;;;;;;41.53;29.83;;;12.30;99.90;;;;;;4995829;28;20079;-85
2023/02/16 13:30:47;;;;;;;39.05;29.13;;;12.60;99.90;;;;;;4998655;28;20092;-84
2023/02/16 13:33:44;;;;;;;33.97;26.60;;;12.80;99.90;;;;;;4997808;28;20034;-84
2023/02/16 13:36:39;;;;;;;30.55;23.88;;;12.80;99.90;;;;;;5004533;28;20321;-86
2023/02/16 13:39:19;;;;;;;37.97;28.27;;;12.80;99.90;;;;;;5020149;28;20096;-88
2023/02/16 13:42:04;;;;;;;33.80;24.48;;;12.60;99.90;;;;;;5022365;28;20091;-85
2023/02/16 13:44:47;;;;;;;33.03;24.83;;;12.40;99.90;;;;;;5003382;28;20042;-86
2023/02/16 13:47:23;;;;;;;34.78;24.58;;;12.50;99.90;;;;;;5006466;28;20053;-84